Terminal Aerodrome Forecast
Issued by NWS

Home | Current Version | Previous Version | Text Only | Print | Product List | Glossary On
Versions: 1 2 3 4 5 6 7 8 9 10 11 12 13 14 15 16 17 18 19 20 21 22
465
FTUS41 KBGM 231723
TAFELM
TAF
KELM 231723Z 2318/2418 29010G18KT P6SM BKN045
     FM232300 VRB03KT P6SM SCT100
     FM240800 VRB03KT 3SM BR SCT004
      TEMPO 2409/2412 1SM BR BKN002
     FM241300 31006KT P6SM BKN050=

USA.gov is the U.S. government's official web portal to all federal, state and local government web resources and services.